createdAt,value
2023-02-16T00:00:30.209Z,80.63
2023-02-16T00:02:56.679Z,80.21
2023-02-16T00:05:30.720Z,79.93
2023-02-16T00:07:57.432Z,79.91
2023-02-16T00:10:24.417Z,80.24
2023-02-16T00:13:09.451Z,80.54
2023-02-16T00:15:35.949Z,80.70
2023-02-16T00:18:04.158Z,80.18
2023-02-16T00:20:30.576Z,80.55
2023-02-16T00:22:57.159Z,80.61
2023-02-16T00:25:23.753Z,80.43
2023-02-16T00:27:50.227Z,80.69
2023-02-16T00:30:17.305Z,80.16
2023-02-16T00:32:43.791Z,80.01
2023-02-16T00:35:17.196Z,79.91
2023-02-16T00:37:43.636Z,79.84
2023-02-16T00:40:10.512Z,79.75
2023-02-16T00:42:36.953Z,79.20
2023-02-16T00:45:03.429Z,79.37
2023-02-16T00:47:32.834Z,79.17
2023-02-16T00:49:59.321Z,78.87
2023-02-16T00:52:28.800Z,78.86
2023-02-16T00:54:55.642Z,78.65
2023-02-16T00:57:22.331Z,78.60
2023-02-16T00:59:49.224Z,78.62
2023-02-16T01:02:15.684Z,78.38
2023-02-16T01:04:42.182Z,78.44
2023-02-16T01:07:33.575Z,78.42
2023-02-16T01:10:28.897Z,78.25
2023-02-16T01:12:55.368Z,78.47
2023-02-16T01:15:22.271Z,78.50
2023-02-16T01:17:48.880Z,78.48
2023-02-16T01:20:19.277Z,78.50
2023-02-16T01:22:45.702Z,78.33
2023-02-16T01:25:12.192Z,78.24
2023-02-16T01:27:38.904Z,78.12
2023-02-16T01:30:06.249Z,77.99
2023-02-16T01:32:33.428Z,77.91
2023-02-16T01:35:00.003Z,77.77
2023-02-16T01:37:26.560Z,77.67
2023-02-16T01:39:52.981Z,77.58
2023-02-16T01:42:36.247Z,77.70
2023-02-16T01:45:04.161Z,77.98
2023-02-16T01:47:49.516Z,77.56
2023-02-16T01:50:20.237Z,77.50
2023-02-16T01:52:49.715Z,77.48
2023-02-16T01:55:24.432Z,77.62
2023-02-16T01:57:52.500Z,77.67
2023-02-16T02:00:22.741Z,77.42
2023-02-16T02:02:53.209Z,77.92
2023-02-16T02:05:36.505Z,77.64
2023-02-16T02:08:15.128Z,77.56
2023-02-16T02:10:51.038Z,77.50
2023-02-16T02:13:21.929Z,77.31
2023-02-16T02:15:48.465Z,77.73
2023-02-16T02:18:15.028Z,77.73
2023-02-16T02:21:23.408Z,77.74
2023-02-16T02:23:52.579Z,77.88
2023-02-16T02:26:39.968Z,77.76
2023-02-16T02:29:09.439Z,78.20
2023-02-16T02:31:42.172Z,77.39
2023-02-16T02:34:13.150Z,77.63
2023-02-16T02:36:42.870Z,77.40
2023-02-16T02:39:28.062Z,76.92
2023-02-16T02:42:05.808Z,77.06
2023-02-16T02:44:49.140Z,77.34
2023-02-16T02:47:15.736Z,77.13
2023-02-16T02:49:48.838Z,76.89
2023-02-16T02:52:15.310Z,77.07
2023-02-16T02:55:00.449Z,77.22
2023-02-16T02:57:45.524Z,77.35
2023-02-16T03:00:34.289Z,77.60
2023-02-16T03:03:24.167Z,77.37
2023-02-16T03:05:57.406Z,77.42
2023-02-16T03:08:24.542Z,77.42
2023-02-16T03:11:20.417Z,76.87
2023-02-16T03:13:47.631Z,76.94
2023-02-16T03:16:14.935Z,76.80
2023-02-16T03:18:59.963Z,76.96
2023-02-16T03:21:45.171Z,77.30
2023-02-16T03:24:45.537Z,77.12
2023-02-16T03:27:31.162Z,77.36
2023-02-16T03:29:57.683Z,77.60
2023-02-16T03:32:24.177Z,77.55
2023-02-16T03:34:50.659Z,77.75
2023-02-16T03:37:17.116Z,77.69
2023-02-16T03:40:02.213Z,77.68
2023-02-16T03:42:28.730Z,77.89
2023-02-16T03:44:55.287Z,77.97
2023-02-16T03:47:21.872Z,77.75
2023-02-16T03:49:48.430Z,77.84
2023-02-16T03:52:14.889Z,78.04
2023-02-16T03:54:41.336Z,78.27
2023-02-16T03:57:17.036Z,78.43
2023-02-16T03:59:47.555Z,78.27
2023-02-16T04:02:13.983Z,78.21
2023-02-16T04:04:40.524Z,78.52
2023-02-16T04:07:06.937Z,78.53
2023-02-16T04:09:33.528Z,77.92
2023-02-16T04:12:18.654Z,78.00
2023-02-16T04:14:45.100Z,77.89
2023-02-16T04:17:11.556Z,77.92
2023-02-16T04:19:38.076Z,77.48
2023-02-16T04:22:04.526Z,77.17
2023-02-16T04:24:30.992Z,77.78
2023-02-16T04:26:57.453Z,77.58
2023-02-16T04:29:23.899Z,77.72
2023-02-16T04:31:50.602Z,77.61
2023-02-16T04:34:17.185Z,77.72
2023-02-16T04:36:43.624Z,77.55
2023-02-16T04:39:10.118Z,77.80
2023-02-16T04:41:36.633Z,77.80
2023-02-16T04:44:03.057Z,77.70
2023-02-16T04:46:30.570Z,77.68
2023-02-16T04:48:57.108Z,77.83
2023-02-16T04:51:23.563Z,77.92
2023-02-16T04:53:50.046Z,78.00
2023-02-16T04:56:16.917Z,77.91
2023-02-16T04:58:43.370Z,77.61
2023-02-16T05:01:09.919Z,77.53
2023-02-16T05:03:48.931Z,77.51
2023-02-16T05:06:15.475Z,77.59
2023-02-16T05:08:41.917Z,77.56
2023-02-16T05:11:27.001Z,77.98
2023-02-16T05:14:12.019Z,77.87
2023-02-16T05:16:38.465Z,78.02
2023-02-16T05:19:04.983Z,77.82
2023-02-16T05:21:31.434Z,77.58
2023-02-16T05:24:07.806Z,77.26
2023-02-16T05:26:34.808Z,77.34
2023-02-16T05:29:01.302Z,77.56
2023-02-16T05:31:28.268Z,77.63
2023-02-16T05:33:54.748Z,77.46
2023-02-16T05:36:21.404Z,77.47
2023-02-16T05:38:47.832Z,77.21
2023-02-16T05:41:23.617Z,77.45
2023-02-16T05:43:59.834Z,77.69
2023-02-16T05:46:26.684Z,77.67
2023-02-16T05:48:53.305Z,77.62
2023-02-16T05:51:19.777Z,77.65
2023-02-16T05:53:46.254Z,77.45
2023-02-16T05:56:12.783Z,77.54
2023-02-16T05:58:39.273Z,77.54
2023-02-16T06:01:06.162Z,77.36
2023-02-16T06:03:32.860Z,77.18
2023-02-16T06:06:00.350Z,77.39
2023-02-16T06:08:26.815Z,77.35
2023-02-16T06:10:53.336Z,77.38
2023-02-16T06:13:20.503Z,77.21
2023-02-16T06:15:47.130Z,77.35
2023-02-16T06:18:13.572Z,77.18
2023-02-16T06:20:40.176Z,77.26
2023-02-16T06:23:06.824Z,76.97
2023-02-16T06:25:33.268Z,77.21
2023-02-16T06:27:59.783Z,77.06
2023-02-16T06:30:26.427Z,76.83
2023-02-16T06:32:52.987Z,77.08
2023-02-16T06:35:19.413Z,77.27
2023-02-16T06:37:59.296Z,77.17
2023-02-16T06:40:26.196Z,77.14
2023-02-16T06:42:52.662Z,77.27
2023-02-16T06:45:19.336Z,77.22
2023-02-16T06:47:45.862Z,76.95
2023-02-16T06:50:14.515Z,77.22
2023-02-16T06:52:41.231Z,77.11
2023-02-16T06:55:07.951Z,77.04
2023-02-16T06:57:34.534Z,77.21
2023-02-16T07:00:00.964Z,77.36
2023-02-16T07:02:27.454Z,77.24
2023-02-16T07:04:54.633Z,77.28
2023-02-16T07:07:21.323Z,77.15
2023-02-16T07:09:47.811Z,77.42
2023-02-16T07:12:14.253Z,77.15
2023-02-16T07:14:42.484Z,77.23
2023-02-16T07:17:09.701Z,77.16
2023-02-16T07:19:36.132Z,76.99
2023-02-16T07:22:02.664Z,76.82
2023-02-16T07:24:29.118Z,76.59
2023-02-16T07:26:55.541Z,76.23
2023-02-16T07:29:22.058Z,76.13
2023-02-16T07:31:56.567Z,75.85
2023-02-16T07:34:23.249Z,75.72
2023-02-16T07:36:49.758Z,75.24
2023-02-16T07:39:16.205Z,75.49
2023-02-16T07:41:42.760Z,75.01
2023-02-16T07:44:09.239Z,74.75
2023-02-16T07:46:35.774Z,74.67
2023-02-16T07:49:02.309Z,74.38
2023-02-16T07:51:29.327Z,74.05
2023-02-16T07:53:55.749Z,73.64
2023-02-16T07:56:23.476Z,74.05
2023-02-16T07:58:51.608Z,73.44
2023-02-16T08:01:18.194Z,73.80
2023-02-16T08:03:44.624Z,74.06
2023-02-16T08:06:11.075Z,73.50
2023-02-16T08:08:37.558Z,73.90
2023-02-16T08:11:10.192Z,73.80
2023-02-16T08:13:36.675Z,73.85
2023-02-16T08:16:03.507Z,73.38
2023-02-16T08:18:30.621Z,73.70
2023-02-16T08:21:04.195Z,72.36
2023-02-16T08:23:31.730Z,72.65
2023-02-16T08:25:59.232Z,72.54
2023-02-16T08:28:28.920Z,72.89
2023-02-16T08:30:55.740Z,72.94
2023-02-16T08:33:22.236Z,73.83
2023-02-16T08:35:48.936Z,71.78
2023-02-16T08:38:17.415Z,71.92
2023-02-16T08:40:47.702Z,71.96
2023-02-16T08:43:14.125Z,71.67
2023-02-16T08:45:44.525Z,71.46
2023-02-16T08:48:11.792Z,70.71
2023-02-16T08:50:38.402Z,70.50
2023-02-16T08:53:04.875Z,70.95
2023-02-16T08:55:31.295Z,71.18
2023-02-16T08:57:58.728Z,70.63
2023-02-16T09:00:34.212Z,70.51
2023-02-16T09:03:00.866Z,70.85
2023-02-16T09:05:28.296Z,70.14
2023-02-16T09:07:54.791Z,71.02
2023-02-16T09:10:24.782Z,70.44
2023-02-16T09:12:51.247Z,70.49
2023-02-16T09:15:17.856Z,70.37
2023-02-16T09:17:44.321Z,69.78
2023-02-16T09:20:11.227Z,69.41
2023-02-16T09:22:38.058Z,68.53
2023-02-16T09:25:05.028Z,69.12
2023-02-16T09:27:31.608Z,68.88
2023-02-16T09:29:58.705Z,67.18
2023-02-16T09:32:37.405Z,67.52
2023-02-16T09:35:05.133Z,66.50
2023-02-16T09:37:32.097Z,65.91
2023-02-16T09:39:58.666Z,66.20
2023-02-16T09:42:28.494Z,66.30
2023-02-16T09:45:09.769Z,66.13
2023-02-16T09:47:40.217Z,65.68
2023-02-16T09:50:13.294Z,64.76
2023-02-16T09:52:43.317Z,64.33
2023-02-16T09:55:16.877Z,64.20
2023-02-16T09:57:58.595Z,64.45
2023-02-16T10:00:28.173Z,63.44
2023-02-16T10:03:05.554Z,63.56
2023-02-16T10:05:52.827Z,63.18
2023-02-16T10:08:25.116Z,62.45
2023-02-16T10:11:06.178Z,63.22
2023-02-16T10:13:49.608Z,62.88
2023-02-16T10:16:17.282Z,61.62
2023-02-16T10:18:45.088Z,60.95
2023-02-16T10:21:15.361Z,61.53
2023-02-16T10:23:46.255Z,61.82
2023-02-16T10:26:17.996Z,62.13
2023-02-16T10:28:50.548Z,62.16
2023-02-16T10:31:31.956Z,61.00
2023-02-16T10:34:01.793Z,61.60
2023-02-16T10:36:41.428Z,61.28
2023-02-16T10:39:26.745Z,64.51
2023-02-16T10:42:11.619Z,63.39
2023-02-16T10:44:40.545Z,62.03
2023-02-16T10:47:09.302Z,62.00
2023-02-16T10:49:35.932Z,61.50
2023-02-16T10:52:02.436Z,61.32
2023-02-16T10:54:47.252Z,61.97
2023-02-16T10:57:20.392Z,61.86
2023-02-16T10:59:47.486Z,62.36
2023-02-16T11:02:23.041Z,62.66
2023-02-16T11:04:52.545Z,63.44
2023-02-16T11:07:20.129Z,62.26
2023-02-16T11:09:47.456Z,63.56
2023-02-16T11:12:34.217Z,62.90
2023-02-16T11:15:08.475Z,62.50
2023-02-16T11:17:47.725Z,63.58
2023-02-16T11:20:25.214Z,62.90
2023-02-16T11:22:51.854Z,62.98
2023-02-16T11:25:18.280Z,63.28
2023-02-16T11:27:52.002Z,62.33
2023-02-16T11:30:22.676Z,62.57
2023-02-16T11:32:50.394Z,62.27
2023-02-16T11:35:17.734Z,60.37
2023-02-16T11:37:44.168Z,61.58
2023-02-16T11:40:18.501Z,61.82
2023-02-16T11:42:47.051Z,62.02
2023-02-16T11:45:25.868Z,61.81
2023-02-16T11:47:53.455Z,62.40
2023-02-16T11:50:21.053Z,61.73
2023-02-16T11:52:49.635Z,60.56
2023-02-16T11:55:43.361Z,61.85
2023-02-16T11:58:17.760Z,61.60
2023-02-16T12:00:47.529Z,61.02
2023-02-16T12:03:25.112Z,61.56
2023-02-16T12:06:03.806Z,61.46
2023-02-16T12:08:33.562Z,62.51
2023-02-16T12:11:09.080Z,61.94
2023-02-16T12:13:42.785Z,61.16
2023-02-16T12:16:17.289Z,61.25
2023-02-16T12:18:47.078Z,61.65
2023-02-16T12:21:32.365Z,61.38
2023-02-16T12:24:07.920Z,61.41
2023-02-16T12:26:34.618Z,61.04
2023-02-16T12:29:13.255Z,61.25
2023-02-16T12:31:47.614Z,62.16
2023-02-16T12:34:17.173Z,62.45
2023-02-16T12:36:46.060Z,62.11
2023-02-16T12:39:21.831Z,61.91
2023-02-16T12:41:48.266Z,61.43
2023-02-16T12:44:34.984Z,60.70
2023-02-16T12:47:24.554Z,60.17
2023-02-16T12:49:55.502Z,60.70
2023-02-16T12:52:31.230Z,60.95
2023-02-16T12:55:10.990Z,60.85
2023-02-16T12:57:37.854Z,61.09
2023-02-16T13:00:04.362Z,60.28
2023-02-16T13:02:34.262Z,60.71
2023-02-16T13:05:19.472Z,60.54
2023-02-16T13:08:26.667Z,60.60
2023-02-16T13:10:55.533Z,60.70
2023-02-16T13:13:24.465Z,60.31
2023-02-16T13:15:52.984Z,61.57
2023-02-16T13:18:19.790Z,62.01
2023-02-16T13:20:47.841Z,61.22
2023-02-16T13:23:17.315Z,60.91
2023-02-16T13:25:50.997Z,61.81
2023-02-16T13:28:31.683Z,62.84
2023-02-16T13:30:58.318Z,61.96
2023-02-16T13:33:37.081Z,61.39
2023-02-16T13:36:07.904Z,62.41
2023-02-16T13:38:43.690Z,61.32
2023-02-16T13:41:29.126Z,61.23
2023-02-16T13:43:56.096Z,61.08
2023-02-16T13:46:37.721Z,61.04
2023-02-16T13:49:04.124Z,60.41
2023-02-16T13:51:40.302Z,60.71
2023-02-16T13:54:06.731Z,60.55
2023-02-16T13:56:36.106Z,60.11
2023-02-16T13:59:18.576Z,60.47
2023-02-16T14:01:48.914Z,60.59
2023-02-16T14:04:27.649Z,59.94
2023-02-16T14:07:10.499Z,60.40
2023-02-16T14:09:37.034Z,59.86
2023-02-16T14:12:11.637Z,59.62
2023-02-16T14:14:38.081Z,59.75
2023-02-16T14:17:16.743Z,59.70
2023-02-16T14:19:50.011Z,60.02
2023-02-16T14:22:17.736Z,59.61
2023-02-16T14:24:44.807Z,59.59
2023-02-16T14:27:11.627Z,60.51
2023-02-16T14:29:38.864Z,59.86
2023-02-16T14:32:14.496Z,59.99
2023-02-16T14:34:42.334Z,60.39
2023-02-16T14:37:09.598Z,60.19
2023-02-16T14:39:58.464Z,59.76
2023-02-16T14:42:31.272Z,60.11
2023-02-16T14:45:17.676Z,59.72
2023-02-16T14:47:48.360Z,59.31
2023-02-16T14:50:47.328Z,59.70
2023-02-16T14:53:33.568Z,59.68
2023-02-16T14:56:16.808Z,59.70
2023-02-16T14:58:52.344Z,59.29
2023-02-16T15:01:18.931Z,59.99
2023-02-16T15:03:46.442Z,60.22
2023-02-16T15:06:33.533Z,60.58
2023-02-16T15:09:00.910Z,60.91
2023-02-16T15:11:29.172Z,61.19
2023-02-16T15:13:55.769Z,61.02
2023-02-16T15:16:22.382Z,61.46
2023-02-16T15:18:49.672Z,61.34
2023-02-16T15:21:18.931Z,61.94
2023-02-16T15:23:49.170Z,61.96
2023-02-16T15:26:20.552Z,62.35
2023-02-16T15:29:05.429Z,62.02
2023-02-16T15:31:35.267Z,62.65
2023-02-16T15:34:05.605Z,62.42
2023-02-16T15:36:35.961Z,62.23
2023-02-16T15:39:03.948Z,63.23
2023-02-16T15:41:35.102Z,63.07
2023-02-16T15:44:29.864Z,63.20
2023-02-16T15:47:13.798Z,63.85
2023-02-16T15:49:40.401Z,63.20
2023-02-16T15:52:09.880Z,63.87
2023-02-16T15:54:36.532Z,64.36
2023-02-16T15:57:16.180Z,64.37
2023-02-16T15:59:49.449Z,64.54
2023-02-16T16:02:16.166Z,65.06
2023-02-16T16:04:43.958Z,65.25
2023-02-16T16:07:14.438Z,64.74
2023-02-16T16:09:40.925Z,65.29
2023-02-16T16:12:08.591Z,65.40
2023-02-16T16:14:35.532Z,65.87
2023-02-16T16:17:01.974Z,65.45
2023-02-16T16:19:31.906Z,65.26
2023-02-16T16:21:58.852Z,65.52
2023-02-16T16:24:32.669Z,66.31
2023-02-16T16:26:59.510Z,67.21
2023-02-16T16:29:34.041Z,66.65
2023-02-16T16:32:00.641Z,66.77
2023-02-16T16:34:34.189Z,67.84
2023-02-16T16:37:02.710Z,67.80
2023-02-16T16:39:29.986Z,67.38
2023-02-16T16:41:56.393Z,68.06
2023-02-16T16:44:28.979Z,68.29
2023-02-16T16:46:55.520Z,68.48
2023-02-16T16:49:21.946Z,69.60
2023-02-16T16:51:51.404Z,69.69
2023-02-16T16:54:35.584Z,70.04
2023-02-16T16:57:13.280Z,69.65
2023-02-16T16:59:39.769Z,69.64
2023-02-16T17:02:06.307Z,70.43
2023-02-16T17:04:32.992Z,70.04
2023-02-16T17:06:59.533Z,70.76
2023-02-16T17:09:25.968Z,70.12
2023-02-16T17:11:52.383Z,70.43
2023-02-16T17:14:18.998Z,70.25
2023-02-16T17:16:46.098Z,70.29
2023-02-16T17:19:13.529Z,70.78
2023-02-16T17:21:40.049Z,70.76
2023-02-16T17:24:07.420Z,71.41
2023-02-16T17:26:34.022Z,71.37
2023-02-16T17:29:00.605Z,71.88
2023-02-16T17:31:27.127Z,71.49
2023-02-16T17:33:53.617Z,71.24
2023-02-16T17:36:20.074Z,71.58
2023-02-16T17:38:47.042Z,71.72
2023-02-16T17:41:16.840Z,71.55
2023-02-16T17:43:43.349Z,71.41
2023-02-16T17:46:09.862Z,71.51
2023-02-16T17:48:36.342Z,71.77
2023-02-16T17:51:02.818Z,71.61
2023-02-16T17:53:29.329Z,71.85
2023-02-16T17:55:56.305Z,71.94
2023-02-16T17:58:23.030Z,72.37
2023-02-16T18:00:49.560Z,72.46
2023-02-16T18:03:16.240Z,72.32
2023-02-16T18:05:42.901Z,71.95
2023-02-16T18:08:10.040Z,72.24
2023-02-16T18:10:39.546Z,72.43
2023-02-16T18:13:06.205Z,72.80
2023-02-16T18:15:32.709Z,72.52
2023-02-16T18:17:59.352Z,72.47
2023-02-16T18:20:26.706Z,72.44
2023-02-16T18:22:55.617Z,72.73
2023-02-16T18:25:22.248Z,72.92
2023-02-16T18:27:48.742Z,73.10
2023-02-16T18:30:15.726Z,73.18
2023-02-16T18:32:42.299Z,73.23
2023-02-16T18:35:09.366Z,73.40
2023-02-16T18:37:35.777Z,73.71
2023-02-16T18:40:02.497Z,74.18
2023-02-16T18:42:29.037Z,74.03
2023-02-16T18:44:55.810Z,73.91
2023-02-16T18:47:22.299Z,74.32
2023-02-16T18:49:50.546Z,74.19
2023-02-16T18:52:17.038Z,74.11
2023-02-16T18:54:43.520Z,74.07
2023-02-16T18:57:10.210Z,74.18
2023-02-16T18:59:36.645Z,74.24
2023-02-16T19:02:03.237Z,73.93
2023-02-16T19:04:29.943Z,74.12
2023-02-16T19:06:58.490Z,74.27
2023-02-16T19:09:25.035Z,73.97
2023-02-16T19:11:51.491Z,73.96
2023-02-16T19:14:18.645Z,73.72
2023-02-16T19:16:45.585Z,73.91
2023-02-16T19:19:12.122Z,74.19
2023-02-16T19:21:40.167Z,73.96
2023-02-16T19:24:07.239Z,74.21
2023-02-16T19:26:33.677Z,74.39
2023-02-16T19:29:00.171Z,74.20
2023-02-16T19:31:28.388Z,73.94
2023-02-16T19:33:55.201Z,74.16
2023-02-16T19:36:21.783Z,74.45
2023-02-16T19:38:49.116Z,74.53
2023-02-16T19:41:16.624Z,74.73
2023-02-16T19:43:43.241Z,74.28
2023-02-16T19:46:09.914Z,74.06
2023-02-16T19:48:36.535Z,74.30
2023-02-16T19:51:03.504Z,74.46
2023-02-16T19:56:27.888Z,74.78
2023-02-16T19:58:54.651Z,74.80
2023-02-16T20:01:22.013Z,74.86
2023-02-16T20:03:48.843Z,75.09
2023-02-16T20:06:15.996Z,75.06
2023-02-16T20:08:42.638Z,75.86
2023-02-16T20:11:09.215Z,76.35
2023-02-16T20:13:36.103Z,76.20
2023-02-16T20:16:03.346Z,76.20
2023-02-16T20:18:30.004Z,75.91
2023-02-16T20:21:06.982Z,75.54
2023-02-16T20:23:33.555Z,75.56
2023-02-16T20:26:00.119Z,75.93
2023-02-16T20:28:26.718Z,75.64
2023-02-16T20:30:53.279Z,76.14
2023-02-16T20:33:19.868Z,76.34
2023-02-16T20:35:46.761Z,77.21
2023-02-16T20:38:13.342Z,76.88
2023-02-16T20:40:39.946Z,77.17
2023-02-16T20:43:06.420Z,77.04
2023-02-16T20:45:32.943Z,76.67
2023-02-16T20:47:59.388Z,77.15
2023-02-16T20:50:25.996Z,76.89
2023-02-16T20:52:52.466Z,77.19
2023-02-16T20:55:18.888Z,77.19
2023-02-16T20:58:02.933Z,76.96
2023-02-16T21:00:29.888Z,76.78
2023-02-16T21:02:56.351Z,76.91
2023-02-16T21:05:23.036Z,76.96
2023-02-16T21:07:50.120Z,76.54
2023-02-16T21:10:16.677Z,76.62
2023-02-16T21:12:43.202Z,76.85
2023-02-16T21:15:10.452Z,76.62
2023-02-16T21:17:37.211Z,76.60
2023-02-16T21:20:04.561Z,76.98
2023-02-16T21:22:31.487Z,76.89
2023-02-16T21:24:57.923Z,76.85
2023-02-16T21:27:24.408Z,76.48
2023-02-16T21:29:51.035Z,76.45
2023-02-16T21:32:17.582Z,76.62
2023-02-16T21:34:44.541Z,76.74
2023-02-16T21:37:11.231Z,76.27
2023-02-16T21:39:56.466Z,76.39
2023-02-16T21:42:22.902Z,76.24
2023-02-16T21:45:09.338Z,76.46
2023-02-16T21:47:54.465Z,76.73
2023-02-16T21:50:20.902Z,76.60
2023-02-16T21:52:47.336Z,76.87
2023-02-16T21:55:32.464Z,76.83
2023-02-16T21:57:58.839Z,76.35
2023-02-16T22:00:25.286Z,76.05
2023-02-16T22:02:51.765Z,76.38
2023-02-16T22:05:18.186Z,75.85
2023-02-16T22:07:44.724Z,76.12
2023-02-16T22:10:11.196Z,75.86
2023-02-16T22:12:37.691Z,76.63
2023-02-16T22:15:04.414Z,76.47
2023-02-16T22:17:31.780Z,75.89
2023-02-16T22:19:58.204Z,75.93
2023-02-16T22:22:24.718Z,76.39
2023-02-16T22:24:51.203Z,76.17
2023-02-16T22:27:17.668Z,76.99
2023-02-16T22:29:44.114Z,76.27
2023-02-16T22:32:14.747Z,76.38
2023-02-16T22:34:41.459Z,75.92
2023-02-16T22:37:07.894Z,76.00
2023-02-16T22:39:34.394Z,75.93
2023-02-16T22:42:01.126Z,75.97
2023-02-16T22:44:27.754Z,75.95
2023-02-16T22:46:54.669Z,76.86
2023-02-16T22:49:21.074Z,76.47
2023-02-16T22:51:47.524Z,76.83
2023-02-16T22:54:14.475Z,76.26
2023-02-16T22:56:40.972Z,76.33
2023-02-16T22:59:07.557Z,76.64
2023-02-16T23:01:34.291Z,76.62
2023-02-16T23:04:00.870Z,76.28
2023-02-16T23:06:31.280Z,76.44
2023-02-16T23:08:58.704Z,76.68
2023-02-16T23:11:25.284Z,76.43
2023-02-16T23:13:51.703Z,76.63
2023-02-16T23:16:19.084Z,76.63
2023-02-16T23:18:45.627Z,76.72
2023-02-16T23:21:16.443Z,76.46
2023-02-16T23:23:42.945Z,75.81
2023-02-16T23:26:09.370Z,76.14
2023-02-16T23:28:36.007Z,76.42
2023-02-16T23:31:02.518Z,75.66
2023-02-16T23:33:29.011Z,76.47
2023-02-16T23:35:55.889Z,76.63
2023-02-16T23:38:22.540Z,76.69
2023-02-16T23:40:58.736Z,76.61
2023-02-16T23:43:25.303Z,76.89
2023-02-16T23:45:51.802Z,77.32
2023-02-16T23:48:18.501Z,77.30
2023-02-16T23:50:45.029Z,76.76
2023-02-16T23:53:11.459Z,76.91
2023-02-16T23:55:38.045Z,77.33
2023-02-16T23:58:04.555Z,77.14
